Time;durP1;ratioP1;P1;durP2;ratioP2;P2;SDS_P1;SDS_P2;PMS_P1;PMS_P2;Temp;Humidity;BMP_temperature;BMP_pressure;BME280_temperature;BME280_humidity;BME280_pressure;Samples;Min_cycle;Max_cycle;Signal;HPM_P1;HPM_P2
2021/01/26 00:00:50;;;;;;;7.93;2.80;;;4.40;94.50;;;;;;4900066;29;20036;-64
2021/01/26 00:03:16;;;;;;;5.47;1.70;;;4.40;94.40;;;;;;4899257;29;20059;-65
2021/01/26 00:05:42;;;;;;;6.72;2.28;;;4.30;94.40;;;;;;4899502;29;20033;-66
2021/01/26 00:08:08;;;;;;;5.35;2.08;;;4.30;94.60;;;;;;4898995;29;20119;-65
2021/01/26 00:10:35;;;;;;;6.80;2.60;;;4.30;94.70;;;;;;4899384;29;20537;-65
2021/01/26 00:13:01;;;;;;;3.47;1.60;;;4.30;94.80;;;;;;4899794;29;20021;-65
2021/01/26 00:15:26;;;;;;;7.68;2.25;;;4.40;94.80;;;;;;4881885;29;20359;-65
2021/01/26 00:17:52;;;;;;;5.90;1.90;;;4.50;94.70;;;;;;4899507;29;20045;-65
2021/01/26 00:20:18;;;;;;;4.72;2.17;;;4.50;94.60;;;;;;4899288;29;20037;-65
2021/01/26 00:22:44;;;;;;;9.57;2.10;;;4.60;94.60;;;;;;4899242;29;20386;-64
2021/01/26 00:25:14;;;;;;;7.78;2.55;;;4.60;94.60;;;;;;4895748;29;20486;-66
2021/01/26 00:27:40;;;;;;;4.95;2.05;;;4.70;94.60;;;;;;4880803;29;20393;-66
2021/01/26 00:30:12;;;;;;;11.68;2.40;;;4.70;94.50;;;;;;4897349;29;20032;-67
2021/01/26 00:32:38;;;;;;;8.93;3.10;;;4.70;94.40;;;;;;4897739;29;20043;-66
2021/01/26 00:35:04;;;;;;;9.48;2.72;;;4.70;94.30;;;;;;4896261;29;20456;-66
2021/01/26 00:37:29;;;;;;;8.85;2.25;;;4.70;94.20;;;;;;4898193;29;20024;-66
2021/01/26 00:39:55;;;;;;;6.20;1.80;;;4.60;94.20;;;;;;4898276;29;20556;-66
2021/01/26 00:42:21;;;;;;;8.48;2.50;;;4.60;94.30;;;;;;4898050;29;20056;-66
2021/01/26 00:44:47;;;;;;;12.18;2.25;;;4.50;94.40;;;;;;4898350;29;20020;-66
2021/01/26 00:47:13;;;;;;;8.80;2.33;;;4.50;94.50;;;;;;4898660;29;20025;-66
2021/01/26 00:49:38;;;;;;;15.85;3.25;;;4.50;94.50;;;;;;4898156;29;20021;-64
2021/01/26 00:52:09;;;;;;;8.55;2.20;;;4.40;94.50;;;;;;4897872;29;20028;-65
2021/01/26 00:54:35;;;;;;;13.30;5.38;;;4.30;94.50;;;;;;4876488;29;20478;-65
2021/01/26 00:57:03;;;;;;;9.25;2.67;;;4.30;94.60;;;;;;4883450;29;20105;-65
2021/01/26 00:59:29;;;;;;;7.57;2.63;;;4.30;94.80;;;;;;4879059;29;20049;-65
2021/01/26 01:01:54;;;;;;;8.43;3.45;;;4.20;94.80;;;;;;4863442;29;20117;-65
2021/01/26 01:04:20;;;;;;;12.43;3.20;;;4.20;94.90;;;;;;4863032;29;20116;-64
2021/01/26 01:06:45;;;;;;;7.45;1.98;;;4.20;94.90;;;;;;4862829;29;20335;-65
2021/01/26 01:09:11;;;;;;;9.18;1.88;;;4.20;94.90;;;;;;4879957;29;20408;-64
2021/01/26 01:11:38;;;;;;;7.07;1.98;;;4.20;94.80;;;;;;4879555;29;20037;-64
2021/01/26 01:14:04;;;;;;;4.25;1.60;;;4.20;94.80;;;;;;4879304;29;20120;-64
2021/01/26 01:16:29;;;;;;;7.82;2.20;;;4.10;94.80;;;;;;4862902;29;20108;-65
2021/01/26 01:18:55;;;;;;;6.53;1.90;;;4.20;94.70;;;;;;4879542;29;20036;-64
2021/01/26 01:21:20;;;;;;;6.90;2.00;;;4.10;94.70;;;;;;4879027;29;20061;-65
2021/01/26 01:23:46;;;;;;;9.88;3.03;;;4.10;94.70;;;;;;4879984;29;20582;-65
2021/01/26 01:26:11;;;;;;;11.05;2.13;;;4.00;94.70;;;;;;4879791;29;20041;-65
2021/01/26 01:28:38;;;;;;;7.18;2.10;;;4.00;94.80;;;;;;4861877;29;20025;-64
2021/01/26 01:31:03;;;;;;;10.77;2.50;;;3.90;94.90;;;;;;4879695;29;20068;-66
2021/01/26 01:33:29;;;;;;;16.63;5.15;;;3.90;95.00;;;;;;4879259;29;20494;-65
2021/01/26 01:35:54;;;;;;;10.35;2.50;;;3.90;95.10;;;;;;4878890;29;20029;-65
2021/01/26 01:38:20;;;;;;;8.63;2.38;;;3.90;95.20;;;;;;4878917;29;20491;-65
2021/01/26 01:40:46;;;;;;;12.43;2.60;;;4.00;95.40;;;;;;4879437;29;20025;-65
2021/01/26 01:43:12;;;;;;;11.23;2.55;;;4.00;95.40;;;;;;4878838;29;20066;-65
2021/01/26 01:45:37;;;;;;;7.15;2.45;;;4.10;95.40;;;;;;4862488;29;20040;-64
2021/01/26 01:48:10;;;;;;;12.63;2.95;;;4.10;95.30;;;;;;4862715;29;20025;-66
2021/01/26 01:50:41;;;;;;;12.38;2.85;;;4.20;95.30;;;;;;4878312;29;20049;-66
2021/01/26 01:53:18;;;;;;;13.02;2.42;;;4.20;95.20;;;;;;4879327;29;20386;-66
2021/01/26 01:55:53;;;;;;;7.57;1.88;;;4.10;95.10;;;;;;4878405;29;20049;-66
2021/01/26 01:58:24;;;;;;;11.50;2.63;;;4.10;95.10;;;;;;4878910;29;20029;-67
2021/01/26 02:00:56;;;;;;;8.68;2.20;;;4.10;95.10;;;;;;4879071;29;20037;-66
2021/01/26 02:03:26;;;;;;;6.15;1.65;;;4.10;95.10;;;;;;4878325;29;20028;-67
2021/01/26 02:05:55;;;;;;;12.00;1.85;;;4.20;95.10;;;;;;4879095;29;20025;-66
2021/01/26 02:08:29;;;;;;;11.73;3.45;;;4.30;95.00;;;;;;4878736;29;20022;-65
2021/01/26 02:10:54;;;;;;;6.90;1.80;;;4.30;94.90;;;;;;4878412;29;20044;-65
2021/01/26 02:13:20;;;;;;;6.55;1.77;;;4.40;94.80;;;;;;4878891;29;20025;-65
2021/01/26 02:15:45;;;;;;;10.27;1.75;;;4.50;94.60;;;;;;4878878;29;20029;-65
2021/01/26 02:18:24;;;;;;;9.52;1.92;;;4.60;94.50;;;;;;4861581;29;20049;-66
2021/01/26 02:21:28;;;;;;;8.20;1.88;;;4.60;94.20;;;;;;4879030;29;20021;-66
2021/01/26 02:24:02;;;;;;;10.43;1.92;;;4.60;94.10;;;;;;4878426;29;20386;-66
2021/01/26 02:27:04;;;;;;;8.20;2.08;;;4.50;93.90;;;;;;4878774;29;20033;-65
2021/01/26 02:30:05;;;;;;;10.35;1.60;;;4.40;93.90;;;;;;4861785;29;20021;-65
2021/01/26 02:32:58;;;;;;;12.88;1.70;;;4.40;94.00;;;;;;4838805;29;20498;-65
2021/01/26 02:35:54;;;;;;;9.90;2.00;;;4.40;94.00;;;;;;4868367;29;20025;-65
2021/01/26 02:38:36;;;;;;;6.15;2.20;;;4.30;94.30;;;;;;4894512;29;20474;-67
2021/01/26 02:41:30;;;;;;;6.90;2.13;;;4.30;94.10;;;;;;4895486;29;20107;-65
2021/01/26 02:44:09;;;;;;;8.68;1.75;;;4.30;94.10;;;;;;4886042;29;20048;-65
2021/01/26 02:47:04;;;;;;;5.35;1.52;;;4.20;94.10;;;;;;4896570;29;20115;-65
2021/01/26 02:49:45;;;;;;;9.07;1.85;;;4.20;94.20;;;;;;4878635;29;20085;-65
2021/01/26 02:52:20;;;;;;;9.40;1.90;;;4.20;94.30;;;;;;4897532;29;20039;-65
2021/01/26 02:55:06;;;;;;;12.90;1.95;;;4.20;94.40;;;;;;4899667;29;20060;-66
2021/01/26 02:57:56;;;;;;;5.55;1.70;;;4.30;94.50;;;;;;4883908;29;20100;-65
2021/01/26 03:00:26;;;;;;;11.20;2.22;;;4.40;94.40;;;;;;4883020;29;20389;-64
2021/01/26 03:03:19;;;;;;;10.40;2.05;;;4.50;94.20;;;;;;4901232;29;20120;-65
2021/01/26 03:05:59;;;;;;;14.50;2.30;;;4.60;94.10;;;;;;4900810;29;20049;-65
2021/01/26 03:08:51;;;;;;;17.73;2.03;;;4.60;93.90;;;;;;4900333;29;20486;-65
2021/01/26 03:11:22;;;;;;;11.25;1.70;;;4.60;93.80;;;;;;4897079;29;20076;-65
2021/01/26 03:13:58;;;;;;;9.70;1.58;;;4.70;93.70;;;;;;4900136;29;20029;-65
2021/01/26 03:16:26;;;;;;;8.20;2.25;;;4.70;93.90;;;;;;4900458;29;20079;-65
2021/01/26 03:18:56;;;;;;;7.15;1.90;;;4.80;93.60;;;;;;4883741;29;20028;-65
2021/01/26 03:21:23;;;;;;;9.20;2.17;;;4.80;93.50;;;;;;4899679;29;20111;-66
2021/01/26 03:24:01;;;;;;;7.70;2.58;;;4.70;93.50;;;;;;4900548;29;20033;-65
2021/01/26 03:26:27;;;;;;;10.98;1.90;;;4.70;93.60;;;;;;4900145;29;20029;-65
2021/01/26 03:28:56;;;;;;;10.15;1.80;;;4.70;93.70;;;;;;4899865;29;20028;-66
2021/01/26 03:31:28;;;;;;;8.43;1.90;;;4.50;93.80;;;;;;4900049;29;20040;-66
2021/01/26 03:33:54;;;;;;;6.65;1.83;;;4.40;93.90;;;;;;4900542;29;20024;-65
2021/01/26 03:36:20;;;;;;;10.85;1.90;;;4.40;94.00;;;;;;4899464;29;20024;-65
2021/01/26 03:38:48;;;;;;;9.75;1.90;;;4.30;94.10;;;;;;4900428;29;20029;-65
2021/01/26 03:41:14;;;;;;;5.25;2.05;;;4.20;94.20;;;;;;4899640;29;20434;-66
2021/01/26 03:43:40;;;;;;;10.23;2.10;;;4.10;94.30;;;;;;4899927;29;20025;-66
2021/01/26 03:46:30;;;;;;;9.23;1.98;;;4.00;94.40;;;;;;4900360;29;20508;-65
2021/01/26 03:49:34;;;;;;;7.53;1.67;;;4.00;94.50;;;;;;4899842;29;20036;-65
2021/01/26 03:52:44;;;;;;;5.95;1.40;;;3.90;94.60;;;;;;4900179;29;20055;-66
2021/01/26 03:55:43;;;;;;;17.45;3.05;;;4.00;94.80;;;;;;4899943;29;20044;-66
2021/01/26 03:58:27;;;;;;;9.38;2.00;;;4.00;94.80;;;;;;4900043;29;20027;-66
2021/01/26 04:01:27;;;;;;;6.47;1.77;;;4.10;94.90;;;;;;4899959;29;20032;-66
2021/01/26 04:04:21;;;;;;;9.57;2.28;;;4.10;94.80;;;;;;4857608;29;20044;-65
2021/01/26 04:06:59;;;;;;;10.40;2.10;;;4.20;94.70;;;;;;4899833;29;20035;-66
2021/01/26 04:09:31;;;;;;;13.85;2.42;;;4.30;94.60;;;;;;4882072;29;20104;-65
2021/01/26 04:12:17;;;;;;;8.10;1.60;;;4.30;94.60;;;;;;4899696;29;20088;-65
2021/01/26 04:15:23;;;;;;;9.07;1.70;;;4.30;94.50;;;;;;4883084;29;20044;-65
2021/01/26 04:17:52;;;;;;;12.90;2.08;;;4.30;94.60;;;;;;4899087;29;20031;-66
2021/01/26 04:20:22;;;;;;;9.70;2.10;;;4.40;94.50;;;;;;4882454;29;20107;-65
2021/01/26 04:22:56;;;;;;;8.45;1.52;;;4.40;94.50;;;;;;4899735;29;20033;-66
2021/01/26 04:25:36;;;;;;;8.50;2.05;;;4.50;94.50;;;;;;4898570;29;20029;-65
2021/01/26 04:28:05;;;;;;;7.22;1.80;;;4.50;94.40;;;;;;4899378;29;20036;-65
2021/01/26 04:30:31;;;;;;;12.25;2.75;;;4.50;94.40;;;;;;4898385;29;20442;-65
2021/01/26 04:32:58;;;;;;;12.05;1.60;;;4.60;94.40;;;;;;4899394;29;20107;-65
2021/01/26 04:35:24;;;;;;;15.48;2.13;;;4.60;94.40;;;;;;4899100;29;20108;-66
2021/01/26 04:37:50;;;;;;;7.30;1.80;;;4.60;94.40;;;;;;4898755;29;20491;-67
2021/01/26 04:40:16;;;;;;;6.57;2.00;;;4.50;94.40;;;;;;4882303;29;20025;-66
2021/01/26 04:42:41;;;;;;;11.45;2.72;;;4.50;94.40;;;;;;4902314;29;20108;-66
2021/01/26 04:45:13;;;;;;;12.90;2.08;;;4.50;94.50;;;;;;4898601;29;20426;-66
2021/01/26 04:47:59;;;;;;;9.30;2.13;;;4.50;94.60;;;;;;4888927;29;20028;-65
2021/01/26 04:50:34;;;;;;;16.13;3.28;;;4.50;94.60;;;;;;4898531;29;20180;-66
2021/01/26 04:52:59;;;;;;;16.25;2.10;;;4.50;94.60;;;;;;4897174;29;20017;-66
2021/01/26 04:55:43;;;;;;;16.13;3.72;;;4.50;94.60;;;;;;4903160;29;20055;-65
2021/01/26 04:58:18;;;;;;;10.30;1.67;;;4.50;94.60;;;;;;4917679;29;20030;-65
2021/01/26 05:01:03;;;;;;;14.35;2.35;;;4.50;94.70;;;;;;4883069;29;20032;-65
2021/01/26 05:03:48;;;;;;;12.50;1.75;;;4.50;94.80;;;;;;4881680;29;20040;-66
2021/01/26 05:06:17;;;;;;;10.90;2.47;;;4.50;94.80;;;;;;4898182;29;20561;-65
2021/01/26 05:08:48;;;;;;;12.57;2.30;;;4.50;94.80;;;;;;4898785;29;20028;-66
2021/01/26 05:11:20;;;;;;;11.75;2.10;;;4.60;94.80;;;;;;4898639;29;20077;-64
2021/01/26 05:13:53;;;;;;;14.27;2.33;;;4.60;94.80;;;;;;4897233;29;20029;-65
2021/01/26 05:16:22;;;;;;;21.08;4.32;;;4.70;94.70;;;;;;4898232;29;20119;-65
2021/01/26 05:18:53;;;;;;;12.13;3.13;;;4.80;94.60;;;;;;4898490;29;20104;-66
2021/01/26 05:21:32;;;;;;;12.05;2.00;;;4.90;94.60;;;;;;4897438;29;20036;-65
2021/01/26 05:24:23;;;;;;;12.07;2.72;;;4.90;94.50;;;;;;4895002;29;20024;-65
2021/01/26 05:26:49;;;;;;;13.23;2.95;;;5.00;94.40;;;;;;4896390;29;20107;-65
2021/01/26 05:29:16;;;;;;;14.13;2.40;;;5.10;94.30;;;;;;4897400;29;20025;-65
2021/01/26 05:31:45;;;;;;;11.40;2.30;;;5.00;94.20;;;;;;4897295;29;20040;-64
2021/01/26 05:34:17;;;;;;;13.98;3.08;;;5.10;94.20;;;;;;4880743;29;20040;-64
2021/01/26 05:36:44;;;;;;;;;;;5.00;94.20;;;;;;4898282;29;20096;-64
2021/01/26 05:39:18;;;;;;;8.90;2.08;;;5.00;94.30;;;;;;4889126;29;19911;-64
2021/01/26 05:41:44;;;;;;;13.70;3.88;;;5.00;94.30;;;;;;4890105;29;20037;-64
2021/01/26 05:44:09;;;;;;;8.48;2.58;;;5.00;94.30;;;;;;4895647;29;20516;-65
2021/01/26 05:46:44;;;;;;;10.23;2.28;;;5.10;94.40;;;;;;4896473;29;20040;-65
2021/01/26 05:49:10;;;;;;;20.25;3.42;;;5.10;94.40;;;;;;4895227;29;20116;-65
2021/01/26 05:51:40;;;;;;;12.45;2.28;;;5.10;94.40;;;;;;4887075;29;20132;-65
2021/01/26 05:54:14;;;;;;;10.88;2.08;;;5.10;94.40;;;;;;4897856;29;20029;-66
2021/01/26 05:56:57;;;;;;;8.18;1.92;;;5.10;94.40;;;;;;4897009;29;20052;-64
2021/01/26 05:59:28;;;;;;;10.93;2.22;;;5.00;94.40;;;;;;4897537;29;20036;-65
2021/01/26 06:01:54;;;;;;;9.43;1.77;;;5.10;94.60;;;;;;4897507;29;20033;-65
2021/01/26 06:04:26;;;;;;;11.95;2.20;;;5.10;94.60;;;;;;4880738;29;20024;-64
2021/01/26 06:07:01;;;;;;;11.68;2.17;;;5.10;94.60;;;;;;4883236;29;20037;-65
2021/01/26 06:09:32;;;;;;;9.75;1.95;;;5.10;94.60;;;;;;4878164;29;20029;-65
2021/01/26 06:12:12;;;;;;;11.88;1.92;;;5.10;94.50;;;;;;4878787;29;20037;-65
2021/01/26 06:14:39;;;;;;;13.60;3.63;;;5.20;94.50;;;;;;4876259;29;20028;-65
2021/01/26 06:17:11;;;;;;;112.93;8.45;;;5.20;94.50;;;;;;4900694;29;20128;-64
2021/01/26 06:19:37;;;;;;;8.20;2.20;;;5.30;94.40;;;;;;4897641;29;20031;-64
2021/01/26 06:22:04;;;;;;;11.50;2.00;;;5.30;94.40;;;;;;4897891;29;20053;-64
2021/01/26 06:24:35;;;;;;;12.57;1.95;;;5.30;94.40;;;;;;4897270;29;20385;-63
2021/01/26 06:27:11;;;;;;;11.52;2.67;;;5.30;94.40;;;;;;4883001;29;20029;-64
2021/01/26 06:29:44;;;;;;;13.52;2.47;;;5.30;94.40;;;;;;4885859;29;20043;-66
2021/01/26 06:32:27;;;;;;;9.75;2.47;;;5.30;94.40;;;;;;4899912;29;20036;-67
2021/01/26 06:35:11;;;;;;;9.68;2.58;;;5.30;94.40;;;;;;4884610;29;20470;-69
2021/01/26 06:38:03;;;;;;;9.20;2.22;;;5.40;94.40;;;;;;4874833;29;20037;-67
2021/01/26 06:40:31;;;;;;;11.65;2.13;;;5.40;94.30;;;;;;4897177;29;20081;-67
2021/01/26 06:43:35;;;;;;;8.95;1.80;;;5.50;94.30;;;;;;4886138;29;20033;-67
2021/01/26 06:46:22;;;;;;;11.30;2.55;;;5.50;94.10;;;;;;4919306;29;20028;-68
2021/01/26 06:49:01;;;;;;;116.43;10.25;;;5.60;94.10;;;;;;4902860;29;20029;-68
2021/01/26 06:51:32;;;;;;;18.02;2.22;;;5.70;94.10;;;;;;4900121;29;20076;-68
2021/01/26 06:54:46;;;;;;;14.27;2.22;;;5.70;93.90;;;;;;4918269;29;20444;-68
2021/01/26 06:57:26;;;;;;;13.98;2.70;;;5.70;93.90;;;;;;4886314;29;20051;-69
2021/01/26 07:00:17;;;;;;;9.40;2.15;;;5.70;93.80;;;;;;4917591;29;20043;-69
2021/01/26 07:02:52;;;;;;;300.60;21.63;;;5.70;93.90;;;;;;4902109;29;20033;-66
2021/01/26 07:05:32;;;;;;;5.95;1.70;;;5.70;93.90;;;;;;4919006;29;20028;-66
2021/01/26 07:08:16;;;;;;;12.02;2.60;;;5.80;93.90;;;;;;4917787;29;20084;-66
2021/01/26 07:10:49;;;;;;;10.18;1.92;;;5.80;93.80;;;;;;4916054;29;20048;-66
2021/01/26 07:13:46;;;;;;;13.40;2.67;;;5.80;93.90;;;;;;4915535;29;20055;-69
2021/01/26 07:16:47;;;;;;;10.57;1.75;;;5.80;93.90;;;;;;4884812;29;20638;-66
2021/01/26 07:19:29;;;;;;;17.80;2.55;;;5.80;93.90;;;;;;4892556;29;20045;-63
2021/01/26 07:22:34;;;;;;;7.07;1.95;;;5.80;93.90;;;;;;4904171;29;20123;-63
2021/01/26 07:25:08;;;;;;;9.30;2.58;;;5.80;93.90;;;;;;4897820;29;20115;-67
2021/01/26 07:27:33;;;;;;;5.57;1.92;;;5.90;93.80;;;;;;4915617;29;20024;-67
2021/01/26 07:30:11;;;;;;;10.52;2.63;;;5.90;93.80;;;;;;4916013;29;20024;-66
2021/01/26 07:32:59;;;;;;;8.07;1.98;;;5.90;93.70;;;;;;4904457;29;20521;-67
2021/01/26 07:35:52;;;;;;;8.02;1.90;;;5.70;93.70;;;;;;4899446;29;20037;-67
2021/01/26 07:38:36;;;;;;;10.20;1.88;;;5.70;93.90;;;;;;4899507;29;20033;-64
2021/01/26 07:41:11;;;;;;;7.78;2.22;;;5.70;93.90;;;;;;4899613;29;20103;-67
2021/01/26 07:43:57;;;;;;;7.20;2.10;;;5.60;93.90;;;;;;4899790;29;20394;-65
2021/01/26 07:46:37;;;;;;;7.03;1.90;;;5.60;93.90;;;;;;4899982;29;20072;-66
2021/01/26 07:49:10;;;;;;;7.25;1.58;;;5.60;93.80;;;;;;4899640;29;20056;-66
2021/01/26 07:51:40;;;;;;;6.00;1.60;;;5.60;93.80;;;;;;4899717;29;20125;-66
2021/01/26 07:54:17;;;;;;;8.10;1.50;;;5.50;93.90;;;;;;4900022;29;20462;-68
2021/01/26 07:56:44;;;;;;;4.13;1.42;;;5.40;93.90;;;;;;4882326;29;20107;-69
2021/01/26 07:59:17;;;;;;;9.65;1.65;;;5.40;93.90;;;;;;4883356;29;20437;-68
2021/01/26 08:01:52;;;;;;;10.65;1.67;;;5.30;94.00;;;;;;4899185;29;20544;-66
2021/01/26 08:04:18;;;;;;;5.88;1.73;;;5.30;94.10;;;;;;4899528;29;20025;-65
2021/01/26 08:06:53;;;;;;;4.38;1.58;;;5.30;94.20;;;;;;4899893;29;20549;-66
2021/01/26 08:09:41;;;;;;;5.90;1.35;;;5.30;94.10;;;;;;4898733;29;20107;-66
2021/01/26 08:12:37;;;;;;;6.60;1.70;;;5.30;94.10;;;;;;4884461;29;20044;-66
2021/01/26 08:15:18;;;;;;;6.60;2.20;;;5.20;94.10;;;;;;4899750;29;20024;-66
2021/01/26 08:17:44;;;;;;;6.15;1.77;;;5.10;94.20;;;;;;4899048;29;20490;-68
2021/01/26 08:20:31;;;;;;;5.57;1.92;;;5.00;94.30;;;;;;4899406;29;20107;-66
2021/01/26 08:23:06;;;;;;;4.07;1.23;;;4.90;94.40;;;;;;4898988;29;20024;-66
2021/01/26 08:25:40;;;;;;;7.57;1.65;;;4.90;94.50;;;;;;4899257;29;20438;-67
2021/01/26 08:28:11;;;;;;;5.38;1.65;;;4.90;94.50;;;;;;4899451;29;20025;-65
2021/01/26 08:30:36;;;;;;;6.40;1.80;;;4.90;94.60;;;;;;4898467;29;20089;-66
2021/01/26 08:33:26;;;;;;;3.97;1.80;;;4.90;94.60;;;;;;4899307;29;20040;-66
2021/01/26 08:36:29;;;;;;;5.72;1.45;;;4.90;94.70;;;;;;4887772;29;20044;-67
2021/01/26 08:38:57;;;;;;;3.55;1.60;;;4.90;94.70;;;;;;4898633;29;20028;-66
2021/01/26 08:41:41;;;;;;;4.70;1.55;;;4.90;94.70;;;;;;4899050;29;20021;-69
2021/01/26 08:44:21;;;;;;;4.10;1.40;;;5.00;94.70;;;;;;4898461;29;20482;-68
2021/01/26 08:46:49;;;;;;;5.43;1.60;;;5.10;94.80;;;;;;4899204;29;20097;-65
2021/01/26 08:49:25;;;;;;;8.38;2.05;;;5.20;94.80;;;;;;4898854;29;20513;-65
2021/01/26 08:51:53;;;;;;;7.18;2.00;;;5.40;94.70;;;;;;4898224;29;20100;-66
2021/01/26 08:54:42;;;;;;;4.22;1.20;;;5.50;94.50;;;;;;4898647;29;20032;-66
2021/01/26 08:57:26;;;;;;;6.57;1.27;;;5.60;94.30;;;;;;4898500;29;20052;-66
2021/01/26 08:59:53;;;;;;;3.15;1.30;;;5.70;94.10;;;;;;4897994;29;20100;-67
2021/01/26 09:02:34;;;;;;;8.30;1.52;;;5.80;93.90;;;;;;4898499;29;20025;-66
2021/01/26 09:05:00;;;;;;;3.05;1.33;;;5.80;93.70;;;;;;4898007;29;20025;-65
2021/01/26 09:07:47;;;;;;;6.10;1.88;;;5.80;93.50;;;;;;4898311;29;20032;-66
2021/01/26 09:10:49;;;;;;;6.47;1.60;;;5.90;93.50;;;;;;4898451;29;20091;-65
2021/01/26 09:13:29;;;;;;;5.93;1.30;;;6.00;93.40;;;;;;4803665;29;20358;-66
2021/01/26 09:15:58;;;;;;;3.25;1.23;;;6.00;93.30;;;;;;4872398;29;20041;-65
2021/01/26 09:18:27;;;;;;;4.03;1.45;;;6.10;93.30;;;;;;4898074;29;20470;-65
2021/01/26 09:21:14;;;;;;;8.00;2.83;;;6.10;93.30;;;;;;4897828;29;20024;-65
2021/01/26 09:23:41;;;;;;;5.93;1.35;;;6.10;93.10;;;;;;4898238;29;20024;-68
2021/01/26 09:26:14;;;;;;;5.45;1.65;;;6.00;93.00;;;;;;4897569;29;20040;-67
2021/01/26 09:28:42;;;;;;;6.53;1.70;;;5.90;93.10;;;;;;4897946;29;20024;-66
2021/01/26 09:31:11;;;;;;;6.78;1.70;;;5.90;93.20;;;;;;4881492;29;20037;-67
2021/01/26 09:33:37;;;;;;;7.80;1.80;;;6.00;93.30;;;;;;4897312;29;20029;-67
2021/01/26 09:36:02;;;;;;;7.10;2.00;;;6.00;93.10;;;;;;4898271;29;20088;-65
2021/01/26 09:38:30;;;;;;;5.35;1.60;;;6.20;93.00;;;;;;4897851;29;20115;-69
2021/01/26 09:41:16;;;;;;;11.13;2.38;;;6.30;92.90;;;;;;4897348;29;20033;-66
2021/01/26 09:43:44;;;;;;;7.10;1.85;;;6.30;92.80;;;;;;4897822;29;20020;-66
2021/01/26 09:46:23;;;;;;;5.22;1.67;;;6.50;92.70;;;;;;4898229;29;20024;-66
2021/01/26 09:48:51;;;;;;;7.95;1.50;;;6.60;92.60;;;;;;4897382;29;20028;-67
2021/01/26 09:51:28;;;;;;;3.75;1.70;;;6.60;92.30;;;;;;4897825;29;20115;-68
2021/01/26 09:54:03;;;;;;;7.55;1.77;;;6.60;92.30;;;;;;4898423;29;20048;-68
2021/01/26 09:56:30;;;;;;;11.85;2.38;;;6.50;92.10;;;;;;4897437;29;20068;-66
2021/01/26 09:58:57;;;;;;;14.98;4.18;;;6.50;92.10;;;;;;4880773;29;20024;-68
2021/01/26 10:01:24;;;;;;;11.55;2.85;;;6.30;92.20;;;;;;4896753;29;20040;-67
2021/01/26 10:03:57;;;;;;;6.53;2.58;;;6.20;92.40;;;;;;4897779;29;20443;-69
2021/01/26 10:06:23;;;;;;;8.13;2.28;;;6.20;92.60;;;;;;4897699;29;20032;-67
2021/01/26 10:08:49;;;;;;;5.85;1.50;;;6.10;92.70;;;;;;4896966;29;20107;-66
2021/01/26 10:11:29;;;;;;;7.47;1.88;;;6.10;92.80;;;;;;4880843;29;20135;-69
2021/01/26 10:14:22;;;;;;;5.75;1.80;;;6.00;92.80;;;;;;4897750;29;20035;-66
2021/01/26 10:16:51;;;;;;;9.02;2.25;;;6.00;92.90;;;;;;4897120;29;20156;-66
2021/01/26 10:19:30;;;;;;;5.55;1.52;;;6.00;92.90;;;;;;4897633;29;20028;-67
2021/01/26 10:22:10;;;;;;;6.05;1.80;;;6.10;92.90;;;;;;4897528;29;20047;-66
2021/01/26 10:24:36;;;;;;;3.50;1.45;;;6.10;92.80;;;;;;4897323;29;20025;-66
2021/01/26 10:27:11;;;;;;;7.60;1.77;;;6.10;92.80;;;;;;4897463;29;20056;-67
2021/01/26 10:29:39;;;;;;;7.32;1.90;;;6.10;92.70;;;;;;4896729;29;20091;-69
2021/01/26 10:32:06;;;;;;;10.73;2.10;;;6.20;92.70;;;;;;4897494;29;20073;-69
2021/01/26 10:34:31;;;;;;;9.93;2.35;;;6.20;92.60;;;;;;4897327;29;20108;-67
2021/01/26 10:37:14;;;;;;;5.70;1.92;;;6.20;92.60;;;;;;4896831;29;20426;-66
2021/01/26 10:39:41;;;;;;;5.22;1.67;;;6.20;92.30;;;;;;4880225;29;20466;-67
2021/01/26 10:42:15;;;;;;;10.52;1.80;;;6.20;92.30;;;;;;4897797;29;20037;-66
2021/01/26 10:44:50;;;;;;;5.35;1.73;;;6.20;92.30;;;;;;4896612;29;20048;-66
2021/01/26 10:47:37;;;;;;;6.40;1.60;;;6.30;92.30;;;;;;4897439;29;20477;-68
2021/01/26 10:50:26;;;;;;;5.97;1.58;;;6.40;92.30;;;;;;4896333;29;20044;-66
2021/01/26 10:52:53;;;;;;;6.72;1.85;;;6.60;92.10;;;;;;4897519;29;20035;-65
2021/01/26 10:55:22;;;;;;;6.18;2.00;;;6.70;92.00;;;;;;4897019;29;20100;-66
2021/01/26 10:57:51;;;;;;;6.35;1.65;;;6.70;91.80;;;;;;4896621;29;20032;-66
2021/01/26 11:00:22;;;;;;;4.88;1.58;;;6.80;91.60;;;;;;4897260;29;20393;-66
2021/01/26 11:02:51;;;;;;;10.15;2.17;;;6.80;91.50;;;;;;4897203;29;20021;-66
2021/01/26 11:05:17;;;;;;;5.65;1.70;;;6.80;91.40;;;;;;4879918;29;20103;-67
2021/01/26 11:07:43;;;;;;;7.68;1.80;;;6.80;91.30;;;;;;4880453;29;20115;-66
2021/01/26 11:10:10;;;;;;;4.25;1.52;;;6.80;91.20;;;;;;4897163;29;20033;-67
2021/01/26 11:12:37;;;;;;;4.00;1.38;;;6.80;90.90;;;;;;4898281;29;20088;-67
2021/01/26 11:15:05;;;;;;;5.68;1.95;;;6.80;91.00;;;;;;4900782;29;20024;-67
2021/01/26 11:17:30;;;;;;;6.60;1.77;;;6.90;91.00;;;;;;4883501;29;20029;-68
2021/01/26 11:19:56;;;;;;;8.73;2.35;;;6.90;90.80;;;;;;4899851;29;20067;-70
2021/01/26 11:22:21;;;;;;;7.25;1.90;;;7.00;90.90;;;;;;4900395;29;20500;-66
2021/01/26 11:24:47;;;;;;;8.48;2.00;;;7.00;90.80;;;;;;4900672;29;20025;-67
2021/01/26 11:27:12;;;;;;;8.35;1.95;;;7.10;91.00;;;;;;4899785;29;20044;-67
2021/01/26 11:29:38;;;;;;;7.10;1.75;;;7.10;90.50;;;;;;4900264;29;20036;-67
2021/01/26 11:32:04;;;;;;;3.13;1.30;;;7.10;90.50;;;;;;4900617;29;20088;-67
2021/01/26 11:34:30;;;;;;;5.40;1.70;;;7.20;90.40;;;;;;4899377;29;20028;-69
2021/01/26 11:36:56;;;;;;;11.25;2.30;;;7.10;90.20;;;;;;4900535;29;20111;-68
2021/01/26 11:39:21;;;;;;;4.40;1.52;;;7.20;90.20;;;;;;4883181;29;20512;-68
2021/01/26 11:41:47;;;;;;;6.55;1.88;;;7.30;90.00;;;;;;4899617;29;20088;-67
2021/01/26 11:44:12;;;;;;;5.75;1.60;;;7.30;89.40;;;;;;4900059;29;20107;-69
2021/01/26 11:46:38;;;;;;;3.55;1.63;;;7.40;89.10;;;;;;4899272;29;20067;-69
2021/01/26 11:49:04;;;;;;;10.00;3.20;;;7.50;89.20;;;;;;4884642;29;20385;-70
2021/01/26 11:51:30;;;;;;;7.60;1.95;;;7.60;88.60;;;;;;4892522;29;20447;-68
2021/01/26 11:53:56;;;;;;;4.57;1.67;;;7.60;88.50;;;;;;4905986;29;20048;-67
2021/01/26 11:56:23;;;;;;;9.80;2.70;;;7.70;88.70;;;;;;4904534;29;20103;-68
2021/01/26 11:58:49;;;;;;;10.32;2.03;;;7.80;88.20;;;;;;4899870;29;20107;-67
2021/01/26 12:01:16;;;;;;;7.03;1.90;;;7.90;88.10;;;;;;4900311;29;20033;-67
2021/01/26 12:03:42;;;;;;;8.55;1.90;;;7.90;88.10;;;;;;4910780;29;20024;-68
2021/01/26 12:06:08;;;;;;;5.72;1.70;;;8.00;88.00;;;;;;4899660;29;20385;-68
2021/01/26 12:08:33;;;;;;;6.97;2.15;;;8.10;87.60;;;;;;4898621;29;20027;-68
2021/01/26 12:10:59;;;;;;;9.77;2.88;;;8.20;86.90;;;;;;4899691;29;20041;-68
2021/01/26 12:13:25;;;;;;;8.38;1.80;;;8.20;86.60;;;;;;4899553;29;20035;-67
2021/01/26 12:15:50;;;;;;;7.90;2.08;;;8.20;85.90;;;;;;4898982;29;20069;-68
2021/01/26 12:18:16;;;;;;;4.45;2.17;;;8.20;85.90;;;;;;4900987;29;20025;-68
2021/01/26 12:20:42;;;;;;;10.05;1.85;;;8.20;86.40;;;;;;4918276;29;20032;-67
2021/01/26 12:23:08;;;;;;;6.07;1.70;;;8.30;86.50;;;;;;4917422;29;20020;-67
2021/01/26 12:25:35;;;;;;;5.95;2.10;;;8.30;85.80;;;;;;4890968;29;20119;-67
2021/01/26 12:28:02;;;;;;;5.90;1.73;;;8.40;85.40;;;;;;4899841;29;20032;-68
2021/01/26 12:30:28;;;;;;;11.05;2.05;;;8.40;85.20;;;;;;4892987;29;20394;-66
2021/01/26 12:32:54;;;;;;;7.75;2.35;;;8.50;85.20;;;;;;4918012;29;20052;-67
2021/01/26 12:35:26;;;;;;;9.18;1.80;;;8.50;84.60;;;;;;4917796;29;20032;-66
2021/01/26 12:37:52;;;;;;;13.45;2.10;;;8.50;84.20;;;;;;4912703;29;20032;-67
2021/01/26 12:40:19;;;;;;;5.20;1.80;;;8.50;84.40;;;;;;4911586;29;20027;-66
2021/01/26 12:42:44;;;;;;;5.80;1.80;;;8.50;84.10;;;;;;4917777;29;20362;-66
2021/01/26 12:45:12;;;;;;;3.95;2.13;;;8.50;84.30;;;;;;4917670;29;20017;-67
2021/01/26 12:47:38;;;;;;;8.65;2.20;;;8.40;83.80;;;;;;4917354;29;20028;-68
2021/01/26 12:50:09;;;;;;;8.38;2.03;;;8.30;84.00;;;;;;4917043;29;20752;-67
2021/01/26 12:52:34;;;;;;;4.55;1.63;;;8.20;84.30;;;;;;4917417;29;20165;-67
2021/01/26 12:55:00;;;;;;;4.70;1.63;;;8.10;84.30;;;;;;4917777;29;20534;-67
2021/01/26 12:57:25;;;;;;;5.55;1.60;;;8.10;84.60;;;;;;4916762;29;20048;-67
2021/01/26 12:59:52;;;;;;;5.57;1.90;;;8.00;84.40;;;;;;4917666;29;20178;-66
2021/01/26 13:02:22;;;;;;;8.98;2.25;;;8.00;84.80;;;;;;4917410;29;20099;-67
2021/01/26 13:04:48;;;;;;;7.45;2.05;;;8.10;85.20;;;;;;4917041;29;20035;-67
2021/01/26 13:07:13;;;;;;;4.65;1.92;;;8.10;85.50;;;;;;4917602;29;20373;-67
2021/01/26 13:09:39;;;;;;;7.45;1.70;;;8.20;85.60;;;;;;4917094;29;20032;-66
2021/01/26 13:12:05;;;;;;;11.20;3.22;;;8.20;85.40;;;;;;4916731;29;20040;-67
2021/01/26 13:14:31;;;;;;;7.40;2.03;;;8.20;85.70;;;;;;4917242;29;20052;-66
2021/01/26 13:16:56;;;;;;;4.78;1.60;;;8.20;85.60;;;;;;4917365;29;20063;-66
2021/01/26 13:19:22;;;;;;;7.22;1.67;;;8.20;85.30;;;;;;4916220;29;20071;-66
2021/01/26 13:21:50;;;;;;;7.68;1.83;;;8.20;84.90;;;;;;4917364;29;20390;-66
2021/01/26 13:24:17;;;;;;;5.75;1.60;;;8.20;84.60;;;;;;4917254;29;20024;-67